Time;durP1;ratioP1;P1;durP2;ratioP2;P2;SDS_P1;SDS_P2;PMS_P1;PMS_P2;Temp;Humidity;BMP_temperature;BMP_pressure;BME280_temperature;BME280_humidity;BME280_pressure;Samples;Min_cycle;Max_cycle;Signal;HPM_P1;HPM_P2
2024/02/13 00:01:07;;;;;;;;;52.25;43.75;;;;;;;;5081544;27;45414;-76
2024/02/13 00:03:32;;;;;;;;;49.75;40.00;;;;;;;;5081427;27;45599;-76
2024/02/13 00:05:58;;;;;;;;;49.25;40.50;;;;;;;;5081528;27;45425;-76
2024/02/13 00:08:27;;;;;;;;;49.25;42.75;;;;;;;;5080280;28;46064;-76
2024/02/13 00:10:52;;;;;;;;;49.75;43.00;;;;;;;;5080074;28;45208;-76
2024/02/13 00:13:17;;;;;;;;;41.00;37.25;;;;;;;;5081321;27;45471;-76
2024/02/13 00:15:43;;;;;;;;;49.75;43.75;;;;;;;;5081472;27;45416;-76
2024/02/13 00:18:08;;;;;;;;;53.50;43.50;;;;;;;;5081253;28;46385;-76
2024/02/13 00:20:33;;;;;;;;;53.00;43.50;;;;;;;;5081200;27;45199;-76
2024/02/13 00:23:00;;;;;;;;;49.50;40.00;;;;;;;;5081375;28;45235;-76
2024/02/13 00:25:26;;;;;;;;;42.25;39.00;;;;;;;;5081224;27;45258;-76
2024/02/13 00:27:51;;;;;;;;;44.75;40.75;;;;;;;;5080762;27;45291;-77
2024/02/13 00:30:16;;;;;;;;;46.00;39.75;;;;;;;;5081125;27;45365;-76
2024/02/13 00:32:42;;;;;;;;;55.50;45.50;;;;;;;;5081397;27;45271;-76
2024/02/13 00:35:08;;;;;;;;;40.25;36.75;;;;;;;;5079623;28;45345;-76
2024/02/13 00:37:33;;;;;;;;;50.50;42.25;;;;;;;;5081140;27;45329;-76
2024/02/13 00:39:59;;;;;;;;;48.00;40.75;;;;;;;;5079588;28;45420;-76
2024/02/13 00:42:26;;;;;;;;;54.50;46.50;;;;;;;;5079830;28;45377;-76
2024/02/13 00:44:51;;;;;;;;;57.25;47.50;;;;;;;;5080528;28;45149;-76
2024/02/13 00:47:17;;;;;;;;;54.50;46.25;;;;;;;;5058123;27;47525;-77
2024/02/13 00:49:42;;;;;;;;;56.25;47.00;;;;;;;;5059030;28;45270;-76
2024/02/13 00:52:08;;;;;;;;;53.25;46.50;;;;;;;;5058539;28;45522;-77
2024/02/13 00:54:33;;;;;;;;;51.25;42.00;;;;;;;;5060392;28;45283;-77
2024/02/13 00:56:58;;;;;;;;;53.50;44.00;;;;;;;;5065018;28;45267;-76
2024/02/13 00:59:23;;;;;;;;;47.50;42.50;;;;;;;;5080418;28;45306;-77
2024/02/13 01:01:48;;;;;;;;;44.00;39.25;;;;;;;;5080802;27;45167;-76
2024/02/13 01:04:14;;;;;;;;;36.75;35.75;;;;;;;;5079288;28;46003;-76
2024/02/13 01:06:39;;;;;;;;;49.75;43.25;;;;;;;;5080632;27;46030;-76
2024/02/13 01:09:05;;;;;;;;;53.25;42.75;;;;;;;;5079329;28;45457;-76
2024/02/13 01:11:35;;;;;;;;;51.00;42.50;;;;;;;;5080746;27;45301;-76
2024/02/13 01:14:01;;;;;;;;;49.75;43.00;;;;;;;;5069988;27;45242;-76
2024/02/13 01:16:29;;;;;;;;;44.25;39.00;;;;;;;;5059984;28;45241;-76
2024/02/13 01:18:55;;;;;;;;;45.75;40.50;;;;;;;;5057577;28;45455;-76
2024/02/13 01:21:22;;;;;;;;;53.00;43.75;;;;;;;;5057948;28;45388;-76
2024/02/13 01:23:47;;;;;;;;;43.00;38.75;;;;;;;;5059713;28;45544;-76
2024/02/13 01:26:12;;;;;;;;;46.50;38.75;;;;;;;;5059734;28;46152;-76
2024/02/13 01:28:38;;;;;;;;;45.00;39.50;;;;;;;;5059787;28;45351;-76
2024/02/13 01:31:03;;;;;;;;;51.75;40.00;;;;;;;;5060194;28;45401;-77
2024/02/13 01:33:29;;;;;;;;;46.00;40.75;;;;;;;;5059457;28;45338;-76
2024/02/13 01:35:54;;;;;;;;;44.00;38.25;;;;;;;;5059950;28;45344;-76
2024/02/13 01:38:20;;;;;;;;;49.75;41.50;;;;;;;;5059909;28;45324;-76
2024/02/13 01:40:46;;;;;;;;;52.50;42.00;;;;;;;;5059846;28;45338;-76
2024/02/13 01:43:11;;;;;;;;;45.25;41.00;;;;;;;;5059589;28;45583;-76
2024/02/13 01:45:36;;;;;;;;;53.00;43.50;;;;;;;;5059694;28;45448;-76
2024/02/13 01:48:04;;;;;;;;;48.00;41.50;;;;;;;;5059673;28;45285;-76
2024/02/13 01:50:29;;;;;;;;;50.00;42.50;;;;;;;;5058374;28;45271;-76
2024/02/13 01:52:54;;;;;;;;;53.50;43.00;;;;;;;;5056709;28;46356;-76
2024/02/13 01:55:23;;;;;;;;;46.25;40.75;;;;;;;;5058396;28;46062;-76
2024/02/13 01:57:49;;;;;;;;;52.00;42.25;;;;;;;;5068601;28;45358;-76
2024/02/13 02:00:14;;;;;;;;;45.75;39.75;;;;;;;;5079609;27;45310;-76
2024/02/13 02:02:43;;;;;;;;;45.25;40.50;;;;;;;;5079850;27;45333;-76
2024/02/13 02:05:11;;;;;;;;;41.75;37.75;;;;;;;;5079560;27;45321;-76
2024/02/13 02:07:37;;;;;;;;;43.25;37.50;;;;;;;;5078259;28;45360;-76
2024/02/13 02:10:03;;;;;;;;;45.25;38.75;;;;;;;;5079738;27;45306;-76
2024/02/13 02:12:28;;;;;;;;;38.25;36.00;;;;;;;;5079516;28;45337;-76
2024/02/13 02:14:53;;;;;;;;;45.25;39.00;;;;;;;;5077958;28;47210;-76
2024/02/13 02:17:18;;;;;;;;;45.00;38.00;;;;;;;;5079506;28;45340;-76
2024/02/13 02:19:44;;;;;;;;;44.75;38.50;;;;;;;;5079550;27;45365;-76
2024/02/13 02:22:09;;;;;;;;;46.00;39.00;;;;;;;;5079617;27;45413;-76
2024/02/13 02:24:34;;;;;;;;;46.25;40.00;;;;;;;;5078032;28;48360;-76
2024/02/13 02:27:01;;;;;;;;;43.50;39.25;;;;;;;;5079068;27;45298;-76
2024/02/13 02:29:26;;;;;;;;;49.00;41.75;;;;;;;;5079476;27;45311;-76
2024/02/13 02:31:51;;;;;;;;;44.75;36.25;;;;;;;;5079300;27;45317;-76
2024/02/13 02:34:18;;;;;;;;;46.75;40.00;;;;;;;;5077667;28;47316;-76
2024/02/13 02:36:50;;;;;;;;;44.50;38.50;;;;;;;;5078006;28;45478;-77
2024/02/13 02:39:15;;;;;;;;;50.25;39.75;;;;;;;;5079358;27;45268;-76
2024/02/13 02:41:40;;;;;;;;;38.75;35.25;;;;;;;;5077789;28;45496;-76
2024/02/13 02:44:06;;;;;;;;;47.75;41.00;;;;;;;;5078848;27;45550;-76
2024/02/13 02:46:31;;;;;;;;;42.75;36.00;;;;;;;;5079110;27;45270;-76
2024/02/13 02:48:57;;;;;;;;;39.25;37.75;;;;;;;;5079322;27;45316;-76
2024/02/13 02:51:22;;;;;;;;;36.75;35.25;;;;;;;;5079197;27;45351;-76
2024/02/13 02:53:47;;;;;;;;;36.25;36.00;;;;;;;;5075910;27;46133;-76
2024/02/13 02:56:15;;;;;;;;;40.25;37.75;;;;;;;;5057395;28;45335;-76
2024/02/13 02:58:42;;;;;;;;;40.50;36.00;;;;;;;;5076059;28;45410;-76
2024/02/13 03:01:08;;;;;;;;;34.00;32.25;;;;;;;;5074915;27;45306;-76
2024/02/13 03:03:33;;;;;;;;;39.75;36.50;;;;;;;;5057148;28;48697;-76
2024/02/13 03:05:58;;;;;;;;;33.00;33.00;;;;;;;;5057225;28;45365;-76
2024/02/13 03:08:24;;;;;;;;;43.25;38.25;;;;;;;;5057781;28;45331;-76
2024/02/13 03:10:49;;;;;;;;;42.75;38.50;;;;;;;;5061383;28;45319;-76
2024/02/13 03:13:14;;;;;;;;;36.50;35.00;;;;;;;;5061870;28;46176;-76
2024/02/13 03:15:39;;;;;;;;;46.25;40.00;;;;;;;;5062116;28;45291;-76
2024/02/13 03:18:05;;;;;;;;;40.75;36.50;;;;;;;;5060796;28;45451;-76
2024/02/13 03:20:31;;;;;;;;;38.75;35.25;;;;;;;;5061995;28;45297;-76
2024/02/13 03:22:56;;;;;;;;;42.75;36.75;;;;;;;;5060395;28;47793;-76
2024/02/13 03:25:22;;;;;;;;;28.25;25.50;;;;;;;;5062064;28;45584;-76
2024/02/13 03:27:47;;;;;;;;;46.25;39.75;;;;;;;;5061813;28;45272;-76
2024/02/13 03:30:13;;;;;;;;;42.00;38.00;;;;;;;;5061849;28;45363;-76
2024/02/13 03:32:38;;;;;;;;;42.75;37.25;;;;;;;;5061797;28;45329;-76
2024/02/13 03:35:03;;;;;;;;;42.50;38.75;;;;;;;;5061633;28;45355;-76
2024/02/13 03:37:29;;;;;;;;;42.00;38.75;;;;;;;;5061937;28;45266;-76
2024/02/13 03:39:54;;;;;;;;;37.50;33.75;;;;;;;;5060190;28;45979;-76
2024/02/13 03:42:19;;;;;;;;;38.75;34.25;;;;;;;;5061612;28;45387;-76
2024/02/13 03:44:45;;;;;;;;;43.25;38.00;;;;;;;;5061474;28;45409;-76
2024/02/13 03:47:10;;;;;;;;;52.75;43.50;;;;;;;;5061426;28;45360;-76
2024/02/13 03:49:36;;;;;;;;;45.50;40.50;;;;;;;;5061430;28;45320;-76
2024/02/13 03:52:01;;;;;;;;;41.50;38.25;;;;;;;;5060030;28;47282;-76
2024/02/13 03:54:26;;;;;;;;;36.00;34.00;;;;;;;;5061390;28;45339;-76
2024/02/13 03:56:52;;;;;;;;;36.50;32.25;;;;;;;;5065338;28;45283;-76
2024/02/13 03:59:17;;;;;;;;;36.25;33.25;;;;;;;;5081492;27;45294;-76
2024/02/13 04:01:43;;;;;;;;;41.25;38.00;;;;;;;;5081556;27;46120;-76
2024/02/13 04:04:08;;;;;;;;;39.50;36.75;;;;;;;;5081617;28;45316;-77
2024/02/13 04:06:34;;;;;;;;;38.50;35.25;;;;;;;;5080033;28;45307;-76
2024/02/13 04:09:02;;;;;;;;;38.50;36.75;;;;;;;;5080229;28;46317;-76
2024/02/13 04:11:28;;;;;;;;;39.25;38.00;;;;;;;;5081534;28;45276;-76
2024/02/13 04:13:54;;;;;;;;;42.00;34.25;;;;;;;;5080965;27;45145;-77
2024/02/13 04:16:19;;;;;;;;;34.50;31.25;;;;;;;;5081446;27;45302;-76
2024/02/13 04:18:44;;;;;;;;;39.25;35.75;;;;;;;;5081132;27;45263;-77
2024/02/13 04:21:15;;;;;;;;;38.25;37.25;;;;;;;;5080689;27;45331;-76
2024/02/13 04:23:40;;;;;;;;;43.75;38.50;;;;;;;;5081152;27;45500;-76
2024/02/13 04:26:05;;;;;;;;;44.25;37.75;;;;;;;;5081018;27;45562;-76
2024/02/13 04:28:30;;;;;;;;;41.00;37.00;;;;;;;;5079489;28;47121;-76
2024/02/13 04:30:56;;;;;;;;;41.00;38.25;;;;;;;;5079197;28;46885;-77
2024/02/13 04:33:21;;;;;;;;;42.75;38.50;;;;;;;;5060653;28;45251;-76
2024/02/13 04:35:47;;;;;;;;;43.00;35.50;;;;;;;;5061027;28;45184;-76
2024/02/13 04:38:12;;;;;;;;;46.00;37.50;;;;;;;;5059532;28;45253;-76
2024/02/13 04:40:37;;;;;;;;;40.75;35.25;;;;;;;;5060539;28;46345;-76
2024/02/13 04:43:04;;;;;;;;;49.00;38.00;;;;;;;;5060545;28;45271;-76
2024/02/13 04:45:29;;;;;;;;;47.75;40.50;;;;;;;;5059474;28;45319;-76
2024/02/13 04:47:56;;;;;;;;;42.50;38.50;;;;;;;;5060461;28;45352;-76
2024/02/13 04:50:23;;;;;;;;;49.00;41.00;;;;;;;;5059134;28;46197;-76
2024/02/13 04:52:48;;;;;;;;;51.50;41.25;;;;;;;;5060358;28;45356;-76
2024/02/13 04:55:13;;;;;;;;;44.25;39.00;;;;;;;;5060534;28;45354;-76
2024/02/13 04:57:38;;;;;;;;;46.25;37.00;;;;;;;;5070573;28;45369;-76
2024/02/13 05:00:14;;;;;;;;;43.25;38.00;;;;;;;;5080449;27;45975;-76
2024/02/13 05:02:39;;;;;;;;;41.75;35.50;;;;;;;;5080751;28;45393;-76
2024/02/13 05:07:48;;;;;;;;;35.75;33.25;;;;;;;;5080569;28;45429;-76
2024/02/13 05:10:14;;;;;;;;;39.75;32.75;;;;;;;;5080381;27;46209;-76
2024/02/13 05:12:42;;;;;;;;;39.75;34.75;;;;;;;;5080435;27;45425;-76
2024/02/13 05:15:08;;;;;;;;;35.25;32.25;;;;;;;;5080711;27;45201;-76
2024/02/13 05:17:34;;;;;;;;;38.00;35.00;;;;;;;;5080337;28;45230;-76
2024/02/13 05:19:59;;;;;;;;;39.25;36.25;;;;;;;;5078768;28;47160;-76
2024/02/13 05:22:25;;;;;;;;;39.25;35.50;;;;;;;;5080300;27;45341;-76
2024/02/13 05:24:50;;;;;;;;;30.00;29.00;;;;;;;;5068819;28;45315;-76
2024/02/13 05:27:15;;;;;;;;;26.33;24.00;;;;;;;;5060012;28;45524;-76
2024/02/13 05:29:43;;;;;;;;;22.33;20.00;;;;;;;;5059095;28;45987;-76
2024/02/13 05:32:08;;;;;;;;;17.33;14.67;;;;;;;;5058856;28;45438;-76
2024/02/13 05:34:34;;;;;;;;;19.00;16.67;;;;;;;;5058889;28;45369;-76
2024/02/13 05:37:00;;;;;;;;;22.67;20.67;;;;;;;;5059980;28;45516;-76
2024/02/13 05:39:25;;;;;;;;;20.33;16.33;;;;;;;;5059637;28;46936;-76
2024/02/13 05:41:50;;;;;;;;;21.33;16.67;;;;;;;;5059725;28;45351;-76
2024/02/13 05:44:16;;;;;;;;;18.00;16.67;;;;;;;;5059512;28;45306;-76
2024/02/13 05:46:42;;;;;;;;;19.00;18.33;;;;;;;;5059482;28;45409;-76
2024/02/13 05:49:07;;;;;;;;;15.67;15.67;;;;;;;;5059508;28;45819;-76
2024/02/13 05:51:32;;;;;;;;;17.00;15.33;;;;;;;;5059533;28;45552;-76
2024/02/13 05:53:57;;;;;;;;;16.33;15.67;;;;;;;;5059878;28;45316;-76
2024/02/13 05:56:23;;;;;;;;;14.00;13.67;;;;;;;;5058365;28;46987;-76
2024/02/13 05:58:48;;;;;;;;;16.67;16.67;;;;;;;;5079144;28;45298;-77
2024/02/13 06:01:13;;;;;;;;;14.00;14.00;;;;;;;;5078587;28;45364;-76
2024/02/13 06:03:39;;;;;;;;;16.00;15.00;;;;;;;;5079929;27;45163;-76
2024/02/13 06:06:05;;;;;;;;;19.67;18.00;;;;;;;;5079700;27;45499;-77
2024/02/13 06:08:30;;;;;;;;;18.33;16.67;;;;;;;;5078274;28;46836;-77
2024/02/13 06:10:56;;;;;;;;;17.67;17.33;;;;;;;;5079439;27;45280;-76
2024/02/13 06:13:21;;;;;;;;;17.33;15.00;;;;;;;;5079744;27;45331;-76
2024/02/13 06:15:46;;;;;;;;;19.00;18.00;;;;;;;;5079897;27;45353;-76
2024/02/13 06:18:11;;;;;;;;;18.33;17.33;;;;;;;;5078282;28;47979;-76
2024/02/13 06:20:37;;;;;;;;;18.00;17.67;;;;;;;;5079453;27;45368;-76
2024/02/13 06:23:02;;;;;;;;;20.33;19.00;;;;;;;;5078042;28;45376;-77
2024/02/13 06:25:28;;;;;;;;;20.00;18.33;;;;;;;;5077884;28;45432;-76
2024/02/13 06:27:53;;;;;;;;;14.67;14.00;;;;;;;;5078221;27;45353;-76
2024/02/13 06:30:18;;;;;;;;;14.33;14.00;;;;;;;;5079542;27;45258;-76
2024/02/13 06:32:43;;;;;;;;;16.33;16.33;;;;;;;;5079482;28;45346;-76
2024/02/13 06:35:08;;;;;;;;;9.33;9.33;;;;;;;;5079452;27;45290;-76
2024/02/13 06:37:34;;;;;;;;;13.00;12.67;;;;;;;;5079344;27;45302;-76
2024/02/13 06:39:59;;;;;;;;;19.33;14.00;;;;;;;;5079333;27;45288;-76
2024/02/13 06:42:24;;;;;;;;;15.67;15.67;;;;;;;;5079482;27;45223;-76
2024/02/13 06:44:50;;;;;;;;;18.33;16.33;;;;;;;;5080648;27;45320;-76
2024/02/13 06:47:15;;;;;;;;;18.67;17.00;;;;;;;;5081093;28;46008;-76
2024/02/13 06:49:40;;;;;;;;;14.67;14.67;;;;;;;;5082765;28;45341;-76
2024/02/13 06:52:09;;;;;;;;;11.00;10.67;;;;;;;;5081589;28;45321;-76
2024/02/13 06:54:35;;;;;;;;;20.33;20.00;;;;;;;;5081463;28;47216;-76
2024/02/13 06:57:00;;;;;;;;;19.00;19.00;;;;;;;;5076551;28;46277;-76
2024/02/13 06:59:27;;;;;;;;;21.33;21.33;;;;;;;;5082369;27;45442;-77
2024/02/13 07:01:52;;;;;;;;;26.00;23.00;;;;;;;;5082052;27;45321;-76
2024/02/13 07:04:17;;;;;;;;;18.00;18.00;;;;;;;;5081526;27;45384;-76
2024/02/13 07:06:42;;;;;;;;;17.00;17.00;;;;;;;;5082585;27;45463;-77
2024/02/13 07:09:10;;;;;;;;;19.33;19.33;;;;;;;;5081118;28;45267;-76
2024/02/13 07:11:35;;;;;;;;;20.33;19.00;;;;;;;;5081429;28;45310;-76
2024/02/13 07:14:00;;;;;;;;;24.33;24.00;;;;;;;;5082176;27;45258;-76
2024/02/13 07:16:26;;;;;;;;;29.00;23.33;;;;;;;;5082357;28;46265;-77
2024/02/13 07:18:51;;;;;;;;;30.67;27.67;;;;;;;;5080742;28;45343;-77
2024/02/13 07:21:16;;;;;;;;;31.67;27.00;;;;;;;;5082579;28;45133;-76
2024/02/13 07:23:41;;;;;;;;;30.25;28.00;;;;;;;;5082044;27;45338;-77
2024/02/13 07:26:11;;;;;;;;;31.00;25.00;;;;;;;;5080608;28;48277;-77
2024/02/13 07:28:36;;;;;;;;;28.75;26.50;;;;;;;;5080774;28;45340;-77
2024/02/13 07:31:03;;;;;;;;;32.50;29.50;;;;;;;;5080739;28;45503;-77
2024/02/13 07:33:28;;;;;;;;;30.25;27.00;;;;;;;;5082141;27;45461;-76
2024/02/13 07:35:53;;;;;;;;;32.25;31.00;;;;;;;;5080597;28;46405;-76
2024/02/13 07:38:19;;;;;;;;;35.33;29.67;;;;;;;;5082122;27;45230;-76
2024/02/13 07:40:44;;;;;;;;;36.50;34.00;;;;;;;;5082294;27;45298;-76
2024/02/13 07:43:12;;;;;;;;;30.33;29.33;;;;;;;;5081658;28;45439;-76
2024/02/13 07:45:37;;;;;;;;;40.00;32.50;;;;;;;;5081936;27;45378;-76
2024/02/13 07:48:04;;;;;;;;;32.75;29.75;;;;;;;;5080568;28;45279;-77
2024/02/13 07:50:29;;;;;;;;;31.00;29.25;;;;;;;;5081773;27;45349;-76
2024/02/13 07:52:55;;;;;;;;;24.00;23.00;;;;;;;;5081732;27;45346;-76
2024/02/13 07:55:20;;;;;;;;;32.75;29.75;;;;;;;;5081527;27;45401;-76
2024/02/13 07:57:50;;;;;;;;;31.50;31.25;;;;;;;;5069107;27;45694;-79
2024/02/13 08:00:16;;;;;;;;;27.67;26.67;;;;;;;;5060049;28;45276;-79
2024/02/13 08:02:41;;;;;;;;;28.33;27.67;;;;;;;;5060155;28;47717;-79
2024/02/13 08:05:07;;;;;;;;;32.67;31.67;;;;;;;;5061227;28;45333;-79
2024/02/13 08:07:32;;;;;;;;;29.33;27.67;;;;;;;;5061312;28;45304;-79
2024/02/13 08:09:57;;;;;;;;;22.33;22.33;;;;;;;;5059974;28;45149;-79
2024/02/13 08:12:24;;;;;;;;;24.67;23.67;;;;;;;;5061165;28;45281;-79
2024/02/13 08:14:49;;;;;;;;;29.33;28.00;;;;;;;;5061344;28;45247;-79
2024/02/13 08:17:14;;;;;;;;;27.33;26.33;;;;;;;;5061113;28;45400;-79
2024/02/13 08:19:40;;;;;;;;;37.67;34.33;;;;;;;;5061185;28;45268;-79
2024/02/13 08:22:05;;;;;;;;;32.00;30.75;;;;;;;;5061095;28;45316;-79
2024/02/13 08:24:31;;;;;;;;;30.67;29.33;;;;;;;;5060964;28;45342;-79
2024/02/13 08:26:56;;;;;;;;;28.67;27.00;;;;;;;;5060687;28;45397;-79
2024/02/13 08:29:21;;;;;;;;;29.00;26.33;;;;;;;;5059517;28;45330;-79
2024/02/13 08:31:50;;;;;;;;;38.00;33.33;;;;;;;;5059498;28;47087;-79
2024/02/13 08:34:17;;;;;;;;;27.33;26.67;;;;;;;;5060733;28;46107;-79
2024/02/13 08:36:42;;;;;;;;;33.67;29.00;;;;;;;;5060755;28;45517;-79
2024/02/13 08:39:07;;;;;;;;;33.33;29.67;;;;;;;;5059437;28;45568;-79
2024/02/13 08:41:33;;;;;;;;;26.67;24.00;;;;;;;;5060063;28;45457;-80
2024/02/13 08:43:58;;;;;;;;;26.00;23.33;;;;;;;;5059751;28;45265;-79
2024/02/13 08:46:25;;;;;;;;;23.67;23.33;;;;;;;;5060606;28;45279;-79
2024/02/13 08:48:50;;;;;;;;;29.00;26.67;;;;;;;;5059389;28;45364;-79
2024/02/13 08:51:16;;;;;;;;;25.33;23.33;;;;;;;;5060564;28;45299;-79
2024/02/13 08:53:41;;;;;;;;;28.00;25.00;;;;;;;;5060007;28;45796;-79
2024/02/13 08:56:06;;;;;;;;;35.00;29.67;;;;;;;;5060639;28;45232;-79
2024/02/13 08:58:31;;;;;;;;;31.00;28.67;;;;;;;;5076675;28;45370;-79
2024/02/13 09:00:57;;;;;;;;;27.67;24.33;;;;;;;;5080616;28;45430;-79
2024/02/13 09:03:22;;;;;;;;;32.33;28.67;;;;;;;;5080571;27;46280;-80
2024/02/13 09:05:48;;;;;;;;;29.67;27.33;;;;;;;;5079300;28;45380;-79
2024/02/13 09:08:14;;;;;;;;;28.33;27.33;;;;;;;;5080622;27;45811;-79
2024/02/13 09:10:40;;;;;;;;;32.00;29.33;;;;;;;;5062625;28;46207;-79
2024/02/13 09:13:05;;;;;;;;;29.00;27.00;;;;;;;;5059770;28;45333;-79
2024/02/13 09:15:31;;;;;;;;;26.00;22.67;;;;;;;;5059973;28;45311;-79
2024/02/13 09:17:56;;;;;;;;;29.00;24.67;;;;;;;;5060301;28;45176;-79
2024/02/13 09:20:21;;;;;;;;;30.67;27.00;;;;;;;;5058240;28;47261;-80
2024/02/13 09:22:47;;;;;;;;;31.67;27.67;;;;;;;;5058308;28;47395;-79
2024/02/13 09:25:13;;;;;;;;;29.67;26.67;;;;;;;;5059020;28;45322;-79
2024/02/13 09:27:39;;;;;;;;;32.00;29.33;;;;;;;;5057845;28;45274;-78
2024/02/13 09:30:04;;;;;;;;;26.00;23.33;;;;;;;;5057335;28;45299;-79
2024/02/13 09:32:31;;;;;;;;;32.00;29.33;;;;;;;;5056984;28;47081;-79
2024/02/13 09:34:57;;;;;;;;;25.00;23.00;;;;;;;;5059814;28;45677;-78
2024/02/13 09:37:22;;;;;;;;;31.33;29.00;;;;;;;;5059314;28;45515;-79
2024/02/13 09:39:48;;;;;;;;;26.33;24.33;;;;;;;;5059649;28;45372;-79
2024/02/13 09:42:16;;;;;;;;;27.00;24.00;;;;;;;;5059542;28;47167;-79
2024/02/13 09:44:42;;;;;;;;;26.33;23.33;;;;;;;;5059701;28;45320;-79
2024/02/13 09:47:09;;;;;;;;;26.33;26.00;;;;;;;;5058331;28;45324;-79
2024/02/13 09:49:35;;;;;;;;;19.00;17.33;;;;;;;;5058150;28;46268;-79
2024/02/13 09:52:06;;;;;;;;;22.67;22.67;;;;;;;;5059314;28;45357;-79
2024/02/13 09:54:34;;;;;;;;;27.33;27.33;;;;;;;;5058066;28;45292;-79
2024/02/13 09:56:59;;;;;;;;;21.67;20.33;;;;;;;;5064531;28;45273;-79
2024/02/13 09:59:25;;;;;;;;;27.00;24.33;;;;;;;;5079605;27;45589;-79
2024/02/13 10:01:50;;;;;;;;;21.00;20.33;;;;;;;;5078270;28;48338;-80
2024/02/13 10:04:15;;;;;;;;;28.33;25.00;;;;;;;;5079844;27;45447;-80
2024/02/13 10:06:40;;;;;;;;;26.67;25.00;;;;;;;;5079970;27;45347;-80
2024/02/13 10:09:11;;;;;;;;;22.33;21.67;;;;;;;;5079781;27;45273;-80
2024/02/13 10:11:36;;;;;;;;;29.67;26.67;;;;;;;;5079571;27;46392;-80
2024/02/13 10:14:03;;;;;;;;;23.67;20.67;;;;;;;;5065557;27;45369;-79
2024/02/13 10:16:28;;;;;;;;;23.00;22.33;;;;;;;;5059376;28;45353;-80
2024/02/13 10:18:54;;;;;;;;;19.33;16.00;;;;;;;;5058151;28;46191;-79
2024/02/13 10:21:22;;;;;;;;;22.33;19.00;;;;;;;;5059223;28;45510;-79
2024/02/13 10:23:48;;;;;;;;;23.33;23.33;;;;;;;;5058654;28;45315;-80
2024/02/13 10:26:14;;;;;;;;;22.00;21.00;;;;;;;;5059151;28;45523;-79
2024/02/13 10:28:44;;;;;;;;;23.00;20.33;;;;;;;;5058971;28;45519;-80
2024/02/13 10:31:09;;;;;;;;;18.33;18.33;;;;;;;;5058998;28;46078;-80
2024/02/13 10:33:41;;;;;;;;;19.67;16.33;;;;;;;;5058717;28;45322;-79
2024/02/13 10:36:06;;;;;;;;;22.33;20.67;;;;;;;;5059171;28;45351;-79
2024/02/13 10:38:33;;;;;;;;;20.67;20.67;;;;;;;;5055555;28;47311;-79
2024/02/13 10:40:59;;;;;;;;;13.00;13.00;;;;;;;;5057345;28;46302;-79
2024/02/13 10:43:25;;;;;;;;;26.67;23.00;;;;;;;;5057290;28;45264;-79
2024/02/13 10:45:55;;;;;;;;;21.00;21.00;;;;;;;;5059103;28;45460;-80
2024/02/13 10:48:25;;;;;;;;;20.33;20.00;;;;;;;;5058756;28;45394;-79
2024/02/13 10:50:53;;;;;;;;;23.00;23.00;;;;;;;;5058766;28;46515;-79
2024/02/13 10:53:19;;;;;;;;;23.00;21.33;;;;;;;;5058703;28;45651;-79
2024/02/13 10:55:46;;;;;;;;;21.00;21.00;;;;;;;;5057621;28;45304;-80
2024/02/13 10:58:13;;;;;;;;;17.67;15.67;;;;;;;;5073316;28;45453;-79
2024/02/13 11:00:39;;;;;;;;;17.00;15.00;;;;;;;;5057641;27;47332;-80
2024/02/13 11:03:06;;;;;;;;;20.00;19.00;;;;;;;;5037114;28;45337;-80
2024/02/13 11:05:31;;;;;;;;;16.33;16.33;;;;;;;;5038597;28;45315;-80
2024/02/13 11:07:57;;;;;;;;;17.67;17.33;;;;;;;;5048504;28;45567;-80
2024/02/13 11:10:29;;;;;;;;;13.67;12.67;;;;;;;;5057205;28;45588;-80
2024/02/13 11:12:54;;;;;;;;;17.67;16.33;;;;;;;;5058119;28;45419;-80
2024/02/13 11:15:20;;;;;;;;;17.00;15.67;;;;;;;;5058194;28;45528;-80
2024/02/13 11:17:45;;;;;;;;;12.00;12.00;;;;;;;;5057672;28;45426;-80
2024/02/13 11:20:13;;;;;;;;;13.00;12.00;;;;;;;;5057479;28;45976;-80
2024/02/13 11:22:44;;;;;;;;;19.33;18.33;;;;;;;;5058801;28;45326;-80
2024/02/13 11:25:12;;;;;;;;;15.33;13.67;;;;;;;;5058624;28;45231;-79
2024/02/13 11:27:40;;;;;;;;;19.67;15.33;;;;;;;;5056948;28;45830;-81
2024/02/13 11:30:07;;;;;;;;;14.33;14.33;;;;;;;;5058558;28;45872;-81
2024/02/13 11:32:37;;;;;;;;;20.33;20.33;;;;;;;;5059405;28;45307;-78
2024/02/13 11:35:09;;;;;;;;;18.00;17.67;;;;;;;;5061992;28;45263;-80
2024/02/13 11:37:34;;;;;;;;;16.67;13.67;;;;;;;;5061832;28;45688;-80
2024/02/13 11:40:04;;;;;;;;;12.00;12.00;;;;;;;;5057597;28;46173;-80
2024/02/13 11:42:32;;;;;;;;;17.33;14.67;;;;;;;;5061453;28;45338;-79
2024/02/13 11:44:58;;;;;;;;;15.00;13.00;;;;;;;;5060416;28;45287;-79
2024/02/13 11:47:24;;;;;;;;;17.67;17.67;;;;;;;;5060042;28;46395;-79
2024/02/13 11:49:49;;;;;;;;;20.00;17.00;;;;;;;;5060833;28;45392;-81
2024/02/13 11:52:15;;;;;;;;;20.67;18.00;;;;;;;;5051368;28;45889;-80
2024/02/13 11:54:40;;;;;;;;;16.33;15.67;;;;;;;;5055247;28;45959;-80
2024/02/13 11:57:07;;;;;;;;;13.67;13.33;;;;;;;;5064633;28;45925;-81
2024/02/13 11:59:35;;;;;;;;;19.67;17.67;;;;;;;;5080841;27;45368;-80
2024/02/13 12:02:00;;;;;;;;;14.00;12.00;;;;;;;;5081027;27;45311;-80
2024/02/13 12:04:26;;;;;;;;;15.33;15.33;;;;;;;;5080186;28;45524;-79
2024/02/13 12:06:52;;;;;;;;;13.00;12.33;;;;;;;;5081579;28;45396;-80
2024/02/13 12:09:17;;;;;;;;;19.00;16.00;;;;;;;;5081627;27;46249;-80
2024/02/13 12:11:45;;;;;;;;;14.00;14.00;;;;;;;;5080506;28;45352;-80
2024/02/13 12:14:13;;;;;;;;;15.67;13.67;;;;;;;;5081713;27;45370;-80
2024/02/13 12:16:38;;;;;;;;;14.33;13.00;;;;;;;;5081629;28;45495;-79
2024/02/13 12:19:06;;;;;;;;;16.33;13.00;;;;;;;;5081304;27;45385;-79
2024/02/13 12:21:32;;;;;;;;;17.33;13.67;;;;;;;;5081611;28;45310;-79
2024/02/13 12:24:01;;;;;;;;;16.00;13.33;;;;;;;;5081633;27;45303;-80
2024/02/13 12:26:28;;;;;;;;;13.33;12.67;;;;;;;;5081196;27;45331;-79
2024/02/13 12:28:59;;;;;;;;;15.00;14.33;;;;;;;;5081147;27;46104;-80
2024/02/13 12:31:27;;;;;;;;;10.00;10.00;;;;;;;;5081344;27;45171;-79
2024/02/13 12:34:05;;;;;;;;;11.67;11.67;;;;;;;;5081395;27;45287;-80
2024/02/13 12:36:31;;;;;;;;;13.33;13.33;;;;;;;;5081076;28;45252;-79
2024/02/13 12:39:20;;;;;;;;;10.67;10.67;;;;;;;;5081159;28;45290;-79
2024/02/13 12:41:46;;;;;;;;;12.00;12.00;;;;;;;;5080994;28;45275;-79
2024/02/13 12:44:13;;;;;;;;;13.00;12.00;;;;;;;;5080986;27;45259;-80
2024/02/13 12:46:38;;;;;;;;;10.00;10.00;;;;;;;;5065788;28;45914;-79
2024/02/13 12:49:06;;;;;;;;;14.67;12.00;;;;;;;;5040452;28;45412;-78
2024/02/13 12:51:35;;;;;;;;;13.67;12.67;;;;;;;;5058239;28;45336;-77
2024/02/13 12:54:04;;;;;;;;;13.33;11.00;;;;;;;;5059147;28;45488;-79
2024/02/13 12:56:30;;;;;;;;;12.00;12.00;;;;;;;;5060710;28;45351;-77
2024/02/13 12:58:56;;;;;;;;;15.67;14.33;;;;;;;;5066948;27;46075;-77
2024/02/13 13:01:23;;;;;;;;;13.33;12.67;;;;;;;;5058699;28;45347;-78
2024/02/13 13:03:49;;;;;;;;;12.33;11.33;;;;;;;;5060232;28;45480;-80
2024/02/13 13:06:15;;;;;;;;;9.33;9.33;;;;;;;;5060236;28;45920;-80
2024/02/13 13:08:41;;;;;;;;;10.67;10.67;;;;;;;;5060372;28;45365;-80
2024/02/13 13:11:07;;;;;;;;;14.00;9.33;;;;;;;;5060308;28;45260;-79
2024/02/13 13:13:32;;;;;;;;;10.00;9.33;;;;;;;;5060324;28;45319;-79
2024/02/13 13:15:57;;;;;;;;;12.67;12.67;;;;;;;;5059765;28;45318;-81
2024/02/13 13:18:23;;;;;;;;;10.67;9.33;;;;;;;;5060038;28;46176;-79
2024/02/13 13:20:50;;;;;;;;;10.67;10.33;;;;;;;;5060121;28;45371;-79
2024/02/13 13:23:16;;;;;;;;;12.00;11.33;;;;;;;;5059015;28;45416;-79
2024/02/13 13:25:51;;;;;;;;;9.33;9.00;;;;;;;;5060013;28;45196;-80
2024/02/13 13:28:17;;;;;;;;;10.33;10.33;;;;;;;;5060077;28;45490;-79
2024/02/13 13:30:46;;;;;;;;;9.33;9.33;;;;;;;;5059480;28;45251;-79
2024/02/13 13:33:14;;;;;;;;;9.00;9.00;;;;;;;;5059997;28;45374;-79
2024/02/13 13:35:40;;;;;;;;;9.33;8.00;;;;;;;;5059836;28;45340;-79
2024/02/13 13:38:05;;;;;;;;;9.33;7.33;;;;;;;;5059522;28;46057;-78
2024/02/13 13:40:37;;;;;;;;;8.33;8.33;;;;;;;;5058386;28;45350;-79
2024/02/13 13:43:03;;;;;;;;;7.67;7.67;;;;;;;;5057515;28;45378;-80
2024/02/13 13:45:28;;;;;;;;;8.67;8.67;;;;;;;;5059208;28;45436;-78
2024/02/13 13:47:56;;;;;;;;;9.33;9.33;;;;;;;;5059250;28;46120;-79
2024/02/13 13:50:24;;;;;;;;;8.00;8.00;;;;;;;;5058122;28;45415;-79
2024/02/13 13:52:49;;;;;;;;;6.00;6.00;;;;;;;;5059476;28;45445;-78
2024/02/13 13:55:16;;;;;;;;;7.33;7.00;;;;;;;;5056880;28;46604;-79
2024/02/13 13:57:41;;;;;;;;;8.00;7.00;;;;;;;;5069608;28;45351;-79
2024/02/13 14:00:10;;;;;;;;;8.00;8.00;;;;;;;;5061117;27;45374;-78
2024/02/13 14:02:39;;;;;;;;;9.00;9.00;;;;;;;;5059484;28;45168;-78
2024/02/13 14:05:05;;;;;;;;;9.33;7.00;;;;;;;;5058724;28;45556;-79
2024/02/13 14:07:30;;;;;;;;;8.33;7.67;;;;;;;;5058904;28;45390;-79
2024/02/13 14:09:56;;;;;;;;;7.67;7.67;;;;;;;;5059267;28;45399;-80
2024/02/13 14:12:21;;;;;;;;;8.33;8.33;;;;;;;;5054346;28;45322;-81
2024/02/13 14:14:47;;;;;;;;;7.67;7.67;;;;;;;;5047924;28;45315;-79